sensor_id;sensor_type;location;lat;lon;timestamp;temperature;humidity
40996;DHT22;26723;57.478;12.066;2022-11-20T00:00:44;0.00;99.90
40996;DHT22;26723;57.478;12.066;2022-11-20T00:03:54;-0.10;99.90
40996;DHT22;26723;57.478;12.066;2022-11-20T00:07:03;-0.10;99.90
40996;DHT22;26723;57.478;12.066;2022-11-20T00:10:11;0.00;99.90
40996;DHT22;26723;57.478;12.066;2022-11-20T00:13:20;-0.20;99.90
40996;DHT22;26723;57.478;12.066;2022-11-20T00:16:31;-0.20;99.90
40996;DHT22;26723;57.478;12.066;2022-11-20T00:19:39;-0.20;99.90
40996;DHT22;26723;57.478;12.066;2022-11-20T00:22:48;-0.20;99.90
40996;DHT22;26723;57.478;12.066;2022-11-20T00:26:01;-0.20;99.90
40996;DHT22;26723;57.478;12.066;2022-11-20T00:29:10;-0.20;99.90
40996;DHT22;26723;57.478;12.066;2022-11-20T00:32:20;-0.20;99.90
40996;DHT22;26723;57.478;12.066;2022-11-20T00:35:28;-0.20;99.90
40996;DHT22;26723;57.478;12.066;2022-11-20T00:38:36;-0.30;99.90
40996;DHT22;26723;57.478;12.066;2022-11-20T00:41:45;-0.30;99.90
40996;DHT22;26723;57.478;12.066;2022-11-20T00:44:53;-0.30;99.90
40996;DHT22;26723;57.478;12.066;2022-11-20T00:48:03;-0.20;99.90
40996;DHT22;26723;57.478;12.066;2022-11-20T00:51:12;-0.20;99.90
40996;DHT22;26723;57.478;12.066;2022-11-20T00:54:21;-0.20;99.90
40996;DHT22;26723;57.478;12.066;2022-11-20T00:57:29;-0.30;99.90
40996;DHT22;26723;57.478;12.066;2022-11-20T01:00:37;-0.30;99.90
40996;DHT22;26723;57.478;12.066;2022-11-20T01:03:49;-0.40;99.90
40996;DHT22;26723;57.478;12.066;2022-11-20T01:06:57;-0.40;99.90
40996;DHT22;26723;57.478;12.066;2022-11-20T01:10:07;-0.50;99.90
40996;DHT22;26723;57.478;12.066;2022-11-20T01:13:15;-0.60;99.90
40996;DHT22;26723;57.478;12.066;2022-11-20T01:16:42;-0.50;99.90
40996;DHT22;26723;57.478;12.066;2022-11-20T01:19:52;-0.60;99.90
40996;DHT22;26723;57.478;12.066;2022-11-20T01:23:01;-0.60;99.90
40996;DHT22;26723;57.478;12.066;2022-11-20T01:26:10;-0.60;99.90
40996;DHT22;26723;57.478;12.066;2022-11-20T01:29:20;-0.60;99.90
40996;DHT22;26723;57.478;12.066;2022-11-20T01:32:29;-0.60;99.90
40996;DHT22;26723;57.478;12.066;2022-11-20T01:35:39;-0.60;99.90
40996;DHT22;26723;57.478;12.066;2022-11-20T01:38:48;-0.50;99.90
40996;DHT22;26723;57.478;12.066;2022-11-20T01:41:58;-0.50;99.90
40996;DHT22;26723;57.478;12.066;2022-11-20T01:45:56;-0.50;99.90
40996;DHT22;26723;57.478;12.066;2022-11-20T01:49:10;-0.50;99.90
40996;DHT22;26723;57.478;12.066;2022-11-20T01:52:23;-0.50;99.90
40996;DHT22;26723;57.478;12.066;2022-11-20T01:55:34;-0.50;99.90
40996;DHT22;26723;57.478;12.066;2022-11-20T01:58:48;-0.50;99.90
40996;DHT22;26723;57.478;12.066;2022-11-20T02:01:57;-0.50;99.90
40996;DHT22;26723;57.478;12.066;2022-11-20T02:05:19;-0.50;99.90
40996;DHT22;26723;57.478;12.066;2022-11-20T02:08:32;-0.40;99.90
40996;DHT22;26723;57.478;12.066;2022-11-20T02:11:41;-0.50;99.90
40996;DHT22;26723;57.478;12.066;2022-11-20T02:14:49;-0.50;99.90
40996;DHT22;26723;57.478;12.066;2022-11-20T02:17:57;-0.60;99.90
40996;DHT22;26723;57.478;12.066;2022-11-20T02:21:09;-0.60;99.90
40996;DHT22;26723;57.478;12.066;2022-11-20T02:24:21;-0.60;99.90
40996;DHT22;26723;57.478;12.066;2022-11-20T02:27:30;-0.60;99.90
40996;DHT22;26723;57.478;12.066;2022-11-20T02:30:39;-0.60;99.90
40996;DHT22;26723;57.478;12.066;2022-11-20T02:33:47;-0.60;99.90
40996;DHT22;26723;57.478;12.066;2022-11-20T02:36:56;-0.60;99.90
40996;DHT22;26723;57.478;12.066;2022-11-20T02:40:08;-0.60;99.90
40996;DHT22;26723;57.478;12.066;2022-11-20T02:43:17;-0.50;99.90
40996;DHT22;26723;57.478;12.066;2022-11-20T02:46:25;-0.40;99.90
40996;DHT22;26723;57.478;12.066;2022-11-20T02:49:33;-0.40;99.90
40996;DHT22;26723;57.478;12.066;2022-11-20T02:52:42;-0.40;99.90
40996;DHT22;26723;57.478;12.066;2022-11-20T02:55:52;-0.40;99.90
40996;DHT22;26723;57.478;12.066;2022-11-20T02:59:00;-0.40;99.90
40996;DHT22;26723;57.478;12.066;2022-11-20T03:02:09;-0.40;99.90
40996;DHT22;26723;57.478;12.066;2022-11-20T03:05:17;-0.40;99.90
40996;DHT22;26723;57.478;12.066;2022-11-20T03:08:25;-0.30;99.90
40996;DHT22;26723;57.478;12.066;2022-11-20T03:11:35;-0.30;99.90
40996;DHT22;26723;57.478;12.066;2022-11-20T03:14:43;-0.20;99.90
40996;DHT22;26723;57.478;12.066;2022-11-20T03:17:58;-0.20;99.90
40996;DHT22;26723;57.478;12.066;2022-11-20T03:21:07;-0.20;99.90
40996;DHT22;26723;57.478;12.066;2022-11-20T03:24:16;-0.20;99.90
40996;DHT22;26723;57.478;12.066;2022-11-20T03:27:25;-0.20;99.90
40996;DHT22;26723;57.478;12.066;2022-11-20T03:30:35;-0.20;99.90
40996;DHT22;26723;57.478;12.066;2022-11-20T03:33:43;-0.20;99.90
40996;DHT22;26723;57.478;12.066;2022-11-20T03:36:52;-0.20;99.90
40996;DHT22;26723;57.478;12.066;2022-11-20T03:40:00;-0.20;99.90
40996;DHT22;26723;57.478;12.066;2022-11-20T03:43:11;-0.10;99.90
40996;DHT22;26723;57.478;12.066;2022-11-20T03:46:19;-0.10;99.90
40996;DHT22;26723;57.478;12.066;2022-11-20T03:49:28;-0.10;99.90
40996;DHT22;26723;57.478;12.066;2022-11-20T03:52:36;-0.10;99.90
40996;DHT22;26723;57.478;12.066;2022-11-20T03:55:44;0.00;99.90
40996;DHT22;26723;57.478;12.066;2022-11-20T03:58:54;0.00;99.90
40996;DHT22;26723;57.478;12.066;2022-11-20T04:02:03;0.00;99.90
40996;DHT22;26723;57.478;12.066;2022-11-20T04:05:11;0.00;99.90
40996;DHT22;26723;57.478;12.066;2022-11-20T04:08:20;0.00;99.90
40996;DHT22;26723;57.478;12.066;2022-11-20T04:11:29;0.00;99.90
40996;DHT22;26723;57.478;12.066;2022-11-20T04:14:40;0.00;99.90
40996;DHT22;26723;57.478;12.066;2022-11-20T04:17:48;0.00;99.90
40996;DHT22;26723;57.478;12.066;2022-11-20T04:20:56;0.00;99.90
40996;DHT22;26723;57.478;12.066;2022-11-20T04:24:05;-0.10;99.90
40996;DHT22;26723;57.478;12.066;2022-11-20T04:27:14;-0.10;99.90
40996;DHT22;26723;57.478;12.066;2022-11-20T04:30:24;-0.10;99.90
40996;DHT22;26723;57.478;12.066;2022-11-20T04:33:32;-0.20;99.90
40996;DHT22;26723;57.478;12.066;2022-11-20T04:36:41;-0.20;99.90
40996;DHT22;26723;57.478;12.066;2022-11-20T04:39:49;-0.20;99.90
40996;DHT22;26723;57.478;12.066;2022-11-20T04:42:57;-0.20;99.90
40996;DHT22;26723;57.478;12.066;2022-11-20T04:46:07;-0.30;99.90
40996;DHT22;26723;57.478;12.066;2022-11-20T04:49:15;-0.30;99.90
40996;DHT22;26723;57.478;12.066;2022-11-20T04:52:24;-0.40;99.90
40996;DHT22;26723;57.478;12.066;2022-11-20T04:55:32;-0.30;99.90
40996;DHT22;26723;57.478;12.066;2022-11-20T04:58:41;-0.40;99.90
40996;DHT22;26723;57.478;12.066;2022-11-20T05:01:50;-0.30;99.90
40996;DHT22;26723;57.478;12.066;2022-11-20T05:04:59;-0.30;99.90
40996;DHT22;26723;57.478;12.066;2022-11-20T05:08:07;-0.30;99.90
40996;DHT22;26723;57.478;12.066;2022-11-20T05:11:17;-0.40;99.90
40996;DHT22;26723;57.478;12.066;2022-11-20T05:14:26;-0.40;99.90
40996;DHT22;26723;57.478;12.066;2022-11-20T05:17:36;-0.40;99.90
40996;DHT22;26723;57.478;12.066;2022-11-20T05:20:44;-0.40;99.90
40996;DHT22;26723;57.478;12.066;2022-11-20T05:23:52;-0.50;99.90
40996;DHT22;26723;57.478;12.066;2022-11-20T05:27:01;-0.50;99.90
40996;DHT22;26723;57.478;12.066;2022-11-20T05:30:11;-0.50;99.90
40996;DHT22;26723;57.478;12.066;2022-11-20T05:33:21;-0.40;99.90
40996;DHT22;26723;57.478;12.066;2022-11-20T05:36:30;-0.50;99.90
40996;DHT22;26723;57.478;12.066;2022-11-20T05:39:38;-0.50;99.90
40996;DHT22;26723;57.478;12.066;2022-11-20T05:42:46;-0.60;99.90
40996;DHT22;26723;57.478;12.066;2022-11-20T05:45:55;-0.60;99.90
40996;DHT22;26723;57.478;12.066;2022-11-20T05:49:05;-0.60;99.90
40996;DHT22;26723;57.478;12.066;2022-11-20T05:52:13;-0.60;99.90
40996;DHT22;26723;57.478;12.066;2022-11-20T05:55:21;-0.60;99.90
40996;DHT22;26723;57.478;12.066;2022-11-20T05:58:30;-0.70;99.90
40996;DHT22;26723;57.478;12.066;2022-11-20T06:01:39;-0.60;99.90
40996;DHT22;26723;57.478;12.066;2022-11-20T06:04:48;-0.70;99.90
40996;DHT22;26723;57.478;12.066;2022-11-20T06:07:57;-0.70;99.90
40996;DHT22;26723;57.478;12.066;2022-11-20T06:11:05;-0.70;99.90
40996;DHT22;26723;57.478;12.066;2022-11-20T06:14:14;-0.70;99.90
40996;DHT22;26723;57.478;12.066;2022-11-20T06:17:22;-0.60;99.90
40996;DHT22;26723;57.478;12.066;2022-11-20T06:20:32;-0.60;99.90
40996;DHT22;26723;57.478;12.066;2022-11-20T06:23:48;-0.50;99.90
40996;DHT22;26723;57.478;12.066;2022-11-20T06:26:57;-0.50;99.90
40996;DHT22;26723;57.478;12.066;2022-11-20T06:30:06;-0.50;99.90
40996;DHT22;26723;57.478;12.066;2022-11-20T06:33:15;-0.50;99.90
40996;DHT22;26723;57.478;12.066;2022-11-20T06:36:25;-0.50;99.90
40996;DHT22;26723;57.478;12.066;2022-11-20T06:39:33;-0.60;99.90
40996;DHT22;26723;57.478;12.066;2022-11-20T06:42:41;-0.60;99.90
40996;DHT22;26723;57.478;12.066;2022-11-20T06:45:52;-0.60;99.90
40996;DHT22;26723;57.478;12.066;2022-11-20T06:49:00;-0.50;99.90
40996;DHT22;26723;57.478;12.066;2022-11-20T06:52:10;-0.50;99.90
40996;DHT22;26723;57.478;12.066;2022-11-20T06:55:18;-0.30;99.90
40996;DHT22;26723;57.478;12.066;2022-11-20T06:58:28;-0.30;99.90
40996;DHT22;26723;57.478;12.066;2022-11-20T07:01:37;-0.30;99.90
40996;DHT22;26723;57.478;12.066;2022-11-20T07:04:45;-0.20;99.90
40996;DHT22;26723;57.478;12.066;2022-11-20T07:07:57;-0.20;99.90
40996;DHT22;26723;57.478;12.066;2022-11-20T07:11:06;-0.20;99.90
40996;DHT22;26723;57.478;12.066;2022-11-20T07:14:15;-0.10;99.90
40996;DHT22;26723;57.478;12.066;2022-11-20T07:17:23;0.00;99.90
40996;DHT22;26723;57.478;12.066;2022-11-20T07:20:31;0.10;99.90
40996;DHT22;26723;57.478;12.066;2022-11-20T07:23:41;0.10;99.90
40996;DHT22;26723;57.478;12.066;2022-11-20T07:26:49;0.20;99.90
40996;DHT22;26723;57.478;12.066;2022-11-20T07:29:58;0.20;99.90
40996;DHT22;26723;57.478;12.066;2022-11-20T07:33:06;0.30;99.90
40996;DHT22;26723;57.478;12.066;2022-11-20T07:36:14;0.50;99.90
40996;DHT22;26723;57.478;12.066;2022-11-20T07:39:24;0.60;99.90
40996;DHT22;26723;57.478;12.066;2022-11-20T07:42:32;0.70;99.90
40996;DHT22;26723;57.478;12.066;2022-11-20T07:45:41;0.80;99.90
40996;DHT22;26723;57.478;12.066;2022-11-20T07:48:49;0.90;99.90
40996;DHT22;26723;57.478;12.066;2022-11-20T07:51:57;1.30;99.90
40996;DHT22;26723;57.478;12.066;2022-11-20T07:55:12;1.60;99.90
40996;DHT22;26723;57.478;12.066;2022-11-20T07:58:21;2.10;99.90
40996;DHT22;26723;57.478;12.066;2022-11-20T08:01:30;2.40;99.90
40996;DHT22;26723;57.478;12.066;2022-11-20T08:04:38;2.50;99.90
40996;DHT22;26723;57.478;12.066;2022-11-20T08:07:46;3.30;99.90
40996;DHT22;26723;57.478;12.066;2022-11-20T08:10:58;3.20;99.90
40996;DHT22;26723;57.478;12.066;2022-11-20T08:14:28;2.70;99.90
40996;DHT22;26723;57.478;12.066;2022-11-20T08:17:35;2.30;99.90
40996;DHT22;26723;57.478;12.066;2022-11-20T08:20:44;2.10;99.90
40996;DHT22;26723;57.478;12.066;2022-11-20T08:23:52;1.90;99.90
40996;DHT22;26723;57.478;12.066;2022-11-20T08:27:02;1.90;99.90
40996;DHT22;26723;57.478;12.066;2022-11-20T08:30:11;1.90;99.90
40996;DHT22;26723;57.478;12.066;2022-11-20T08:33:20;1.90;99.90
40996;DHT22;26723;57.478;12.066;2022-11-20T08:36:28;1.90;99.90
40996;DHT22;26723;57.478;12.066;2022-11-20T08:39:36;1.80;99.90
40996;DHT22;26723;57.478;12.066;2022-11-20T08:42:50;1.90;99.90
40996;DHT22;26723;57.478;12.066;2022-11-20T08:45:58;1.90;99.90
40996;DHT22;26723;57.478;12.066;2022-11-20T08:49:08;2.00;99.90
40996;DHT22;26723;57.478;12.066;2022-11-20T08:52:17;2.10;99.90
40996;DHT22;26723;57.478;12.066;2022-11-20T08:55:26;2.30;99.90
40996;DHT22;26723;57.478;12.066;2022-11-20T08:58:35;2.30;99.90
40996;DHT22;26723;57.478;12.066;2022-11-20T09:02:04;2.50;99.90
40996;DHT22;26723;57.478;12.066;2022-11-20T09:05:12;2.90;99.90
40996;DHT22;26723;57.478;12.066;2022-11-20T09:08:28;2.70;99.90
40996;DHT22;26723;57.478;12.066;2022-11-20T09:11:41;2.50;99.90
40996;DHT22;26723;57.478;12.066;2022-11-20T09:14:53;2.60;99.90
40996;DHT22;26723;57.478;12.066;2022-11-20T09:18:03;2.60;99.90
40996;DHT22;26723;57.478;12.066;2022-11-20T09:21:12;2.60;99.90
40996;DHT22;26723;57.478;12.066;2022-11-20T09:24:23;2.70;99.90
40996;DHT22;26723;57.478;12.066;2022-11-20T09:27:32;2.60;99.90
40996;DHT22;26723;57.478;12.066;2022-11-20T09:30:41;2.50;99.90
40996;DHT22;26723;57.478;12.066;2022-11-20T09:33:50;2.40;99.90
40996;DHT22;26723;57.478;12.066;2022-11-20T09:36:58;2.40;99.90
40996;DHT22;26723;57.478;12.066;2022-11-20T09:40:20;2.30;99.90
40996;DHT22;26723;57.478;12.066;2022-11-20T09:43:49;2.20;99.90
40996;DHT22;26723;57.478;12.066;2022-11-20T09:47:05;2.30;99.90
40996;DHT22;26723;57.478;12.066;2022-11-20T09:50:27;2.40;99.90
40996;DHT22;26723;57.478;12.066;2022-11-20T09:53:50;2.40;99.90
40996;DHT22;26723;57.478;12.066;2022-11-20T09:57:03;2.50;99.90
40996;DHT22;26723;57.478;12.066;2022-11-20T10:00:14;2.50;99.90
40996;DHT22;26723;57.478;12.066;2022-11-20T10:03:35;2.40;99.90
40996;DHT22;26723;57.478;12.066;2022-11-20T10:06:50;2.50;99.90
40996;DHT22;26723;57.478;12.066;2022-11-20T10:10:27;2.50;99.90
40996;DHT22;26723;57.478;12.066;2022-11-20T10:13:40;2.40;99.90
40996;DHT22;26723;57.478;12.066;2022-11-20T10:16:56;2.50;99.90
40996;DHT22;26723;57.478;12.066;2022-11-20T10:20:16;2.60;99.90
40996;DHT22;26723;57.478;12.066;2022-11-20T10:23:45;2.50;99.90
40996;DHT22;26723;57.478;12.066;2022-11-20T10:27:03;2.70;99.90
40996;DHT22;26723;57.478;12.066;2022-11-20T10:30:15;2.80;99.90
40996;DHT22;26723;57.478;12.066;2022-11-20T10:33:25;2.90;99.90
40996;DHT22;26723;57.478;12.066;2022-11-20T10:36:59;2.90;99.90
40996;DHT22;26723;57.478;12.066;2022-11-20T10:40:20;2.90;99.90
40996;DHT22;26723;57.478;12.066;2022-11-20T10:43:32;2.90;99.90
40996;DHT22;26723;57.478;12.066;2022-11-20T10:46:44;2.90;99.90
40996;DHT22;26723;57.478;12.066;2022-11-20T10:49:54;2.80;99.90
40996;DHT22;26723;57.478;12.066;2022-11-20T10:53:08;2.90;99.90
40996;DHT22;26723;57.478;12.066;2022-11-20T10:56:30;2.90;99.90
40996;DHT22;26723;57.478;12.066;2022-11-20T10:59:49;3.00;99.90
40996;DHT22;26723;57.478;12.066;2022-11-20T11:03:00;3.20;99.90
40996;DHT22;26723;57.478;12.066;2022-11-20T11:06:17;3.40;99.90
40996;DHT22;26723;57.478;12.066;2022-11-20T11:09:33;3.50;99.90
40996;DHT22;26723;57.478;12.066;2022-11-20T11:12:45;3.50;99.90
40996;DHT22;26723;57.478;12.066;2022-11-20T11:15:54;3.50;99.90
40996;DHT22;26723;57.478;12.066;2022-11-20T11:19:06;3.60;99.90
40996;DHT22;26723;57.478;12.066;2022-11-20T11:22:18;3.60;99.90
40996;DHT22;26723;57.478;12.066;2022-11-20T11:25:30;3.60;99.90
40996;DHT22;26723;57.478;12.066;2022-11-20T11:28:40;3.50;99.90
40996;DHT22;26723;57.478;12.066;2022-11-20T11:31:48;3.40;99.90
40996;DHT22;26723;57.478;12.066;2022-11-20T11:35:01;3.30;99.90
40996;DHT22;26723;57.478;12.066;2022-11-20T11:38:14;3.30;99.90
40996;DHT22;26723;57.478;12.066;2022-11-20T11:41:28;3.40;99.90
40996;DHT22;26723;57.478;12.066;2022-11-20T11:44:44;3.20;99.90
40996;DHT22;26723;57.478;12.066;2022-11-20T11:48:10;3.20;99.90
40996;DHT22;26723;57.478;12.066;2022-11-20T11:51:20;3.20;99.90
40996;DHT22;26723;57.478;12.066;2022-11-20T11:54:32;3.20;99.90
40996;DHT22;26723;57.478;12.066;2022-11-20T11:57:49;3.20;99.90
40996;DHT22;26723;57.478;12.066;2022-11-20T12:01:03;3.10;99.90
40996;DHT22;26723;57.478;12.066;2022-11-20T12:04:20;3.00;99.90
40996;DHT22;26723;57.478;12.066;2022-11-20T12:07:41;2.90;99.90
40996;DHT22;26723;57.478;12.066;2022-11-20T12:10:57;2.90;99.90
40996;DHT22;26723;57.478;12.066;2022-11-20T12:14:14;2.80;99.90
40996;DHT22;26723;57.478;12.066;2022-11-20T12:17:26;2.80;99.90
40996;DHT22;26723;57.478;12.066;2022-11-20T12:20:41;2.90;99.90
40996;DHT22;26723;57.478;12.066;2022-11-20T12:24:02;2.80;99.90
40996;DHT22;26723;57.478;12.066;2022-11-20T12:27:44;2.90;99.90
40996;DHT22;26723;57.478;12.066;2022-11-20T12:31:09;2.80;99.90
40996;DHT22;26723;57.478;12.066;2022-11-20T12:34:35;2.70;99.90
40996;DHT22;26723;57.478;12.066;2022-11-20T12:37:54;2.80;99.90
40996;DHT22;26723;57.478;12.066;2022-11-20T12:41:13;2.80;99.90
40996;DHT22;26723;57.478;12.066;2022-11-20T12:44:59;2.80;99.90
40996;DHT22;26723;57.478;12.066;2022-11-20T12:48:40;2.80;99.90
40996;DHT22;26723;57.478;12.066;2022-11-20T12:52:04;2.70;99.90
40996;DHT22;26723;57.478;12.066;2022-11-20T12:55:31;2.70;99.90
40996;DHT22;26723;57.478;12.066;2022-11-20T12:58:47;2.70;99.90
40996;DHT22;26723;57.478;12.066;2022-11-20T13:02:05;2.70;99.90
40996;DHT22;26723;57.478;12.066;2022-11-20T13:05:26;2.70;99.90
40996;DHT22;26723;57.478;12.066;2022-11-20T13:08:39;2.50;99.90
40996;DHT22;26723;57.478;12.066;2022-11-20T13:11:54;2.50;99.90
40996;DHT22;26723;57.478;12.066;2022-11-20T13:15:08;2.50;99.90
40996;DHT22;26723;57.478;12.066;2022-11-20T13:18:26;2.60;99.90
40996;DHT22;26723;57.478;12.066;2022-11-20T13:21:39;2.50;99.90
40996;DHT22;26723;57.478;12.066;2022-11-20T13:24:51;2.50;99.90
40996;DHT22;26723;57.478;12.066;2022-11-20T13:28:01;2.50;99.90
40996;DHT22;26723;57.478;12.066;2022-11-20T13:31:31;2.40;99.90
40996;DHT22;26723;57.478;12.066;2022-11-20T13:34:50;2.50;99.90
40996;DHT22;26723;57.478;12.066;2022-11-20T13:38:06;2.50;99.90
40996;DHT22;26723;57.478;12.066;2022-11-20T13:41:24;2.50;99.90
40996;DHT22;26723;57.478;12.066;2022-11-20T13:44:44;2.50;99.90
40996;DHT22;26723;57.478;12.066;2022-11-20T13:47:55;2.40;99.90
40996;DHT22;26723;57.478;12.066;2022-11-20T13:51:14;2.40;99.90
40996;DHT22;26723;57.478;12.066;2022-11-20T13:58:24;2.40;99.90
40996;DHT22;26723;57.478;12.066;2022-11-20T14:01:39;2.40;99.90
40996;DHT22;26723;57.478;12.066;2022-11-20T14:04:49;2.40;99.90
40996;DHT22;26723;57.478;12.066;2022-11-20T14:07:58;2.40;99.90
40996;DHT22;26723;57.478;12.066;2022-11-20T14:11:14;2.40;99.90
40996;DHT22;26723;57.478;12.066;2022-11-20T14:14:24;2.30;99.90
40996;DHT22;26723;57.478;12.066;2022-11-20T14:17:34;2.30;99.90
40996;DHT22;26723;57.478;12.066;2022-11-20T14:20:43;2.30;99.90
40996;DHT22;26723;57.478;12.066;2022-11-20T14:24:03;2.30;99.90
40996;DHT22;26723;57.478;12.066;2022-11-20T14:27:17;2.30;99.90
40996;DHT22;26723;57.478;12.066;2022-11-20T14:30:28;2.30;99.90
40996;DHT22;26723;57.478;12.066;2022-11-20T14:33:38;2.30;99.90
40996;DHT22;26723;57.478;12.066;2022-11-20T14:36:47;2.30;99.90
40996;DHT22;26723;57.478;12.066;2022-11-20T14:39:56;2.20;99.90
40996;DHT22;26723;57.478;12.066;2022-11-20T14:43:18;2.20;99.90
40996;DHT22;26723;57.478;12.066;2022-11-20T14:46:27;2.20;99.90
40996;DHT22;26723;57.478;12.066;2022-11-20T14:49:38;2.10;99.90
40996;DHT22;26723;57.478;12.066;2022-11-20T14:52:51;2.10;99.90
40996;DHT22;26723;57.478;12.066;2022-11-20T14:56:02;2.10;99.90
40996;DHT22;26723;57.478;12.066;2022-11-20T14:59:23;2.10;99.90
40996;DHT22;26723;57.478;12.066;2022-11-20T15:02:31;2.00;99.90
40996;DHT22;26723;57.478;12.066;2022-11-20T15:05:48;2.00;99.90
40996;DHT22;26723;57.478;12.066;2022-11-20T15:08:56;1.90;99.90
40996;DHT22;26723;57.478;12.066;2022-11-20T15:12:05;1.90;99.90
40996;DHT22;26723;57.478;12.066;2022-11-20T15:15:18;1.90;99.90
40996;DHT22;26723;57.478;12.066;2022-11-20T15:18:31;1.80;99.90
40996;DHT22;26723;57.478;12.066;2022-11-20T15:21:40;1.80;99.90
40996;DHT22;26723;57.478;12.066;2022-11-20T15:24:48;1.80;99.90
40996;DHT22;26723;57.478;12.066;2022-11-20T15:27:56;1.80;99.90
40996;DHT22;26723;57.478;12.066;2022-11-20T15:31:09;1.80;99.90
40996;DHT22;26723;57.478;12.066;2022-11-20T15:34:19;1.80;99.90
40996;DHT22;26723;57.478;12.066;2022-11-20T15:37:28;1.80;99.90
40996;DHT22;26723;57.478;12.066;2022-11-20T15:40:36;1.80;99.90
40996;DHT22;26723;57.478;12.066;2022-11-20T15:43:45;1.80;99.90
40996;DHT22;26723;57.478;12.066;2022-11-20T15:46:54;1.70;99.90
40996;DHT22;26723;57.478;12.066;2022-11-20T15:50:03;1.70;99.90
40996;DHT22;26723;57.478;12.066;2022-11-20T15:53:12;1.70;99.90
40996;DHT22;26723;57.478;12.066;2022-11-20T15:56:20;1.70;99.90
40996;DHT22;26723;57.478;12.066;2022-11-20T15:59:29;1.70;99.90
40996;DHT22;26723;57.478;12.066;2022-11-20T16:02:38;1.70;99.90
40996;DHT22;26723;57.478;12.066;2022-11-20T16:05:47;1.60;99.90
40996;DHT22;26723;57.478;12.066;2022-11-20T16:08:55;1.60;99.90
40996;DHT22;26723;57.478;12.066;2022-11-20T16:12:04;1.50;99.90
40996;DHT22;26723;57.478;12.066;2022-11-20T16:15:12;1.50;99.90
40996;DHT22;26723;57.478;12.066;2022-11-20T16:18:54;1.50;99.90
40996;DHT22;26723;57.478;12.066;2022-11-20T16:22:02;1.50;99.90
40996;DHT22;26723;57.478;12.066;2022-11-20T16:25:10;1.50;99.90
40996;DHT22;26723;57.478;12.066;2022-11-20T16:28:19;1.50;99.90
40996;DHT22;26723;57.478;12.066;2022-11-20T16:31:28;1.50;99.90
40996;DHT22;26723;57.478;12.066;2022-11-20T16:34:38;1.50;99.90
40996;DHT22;26723;57.478;12.066;2022-11-20T16:37:46;1.60;99.90
40996;DHT22;26723;57.478;12.066;2022-11-20T16:41:00;1.50;99.90
40996;DHT22;26723;57.478;12.066;2022-11-20T16:44:10;1.60;99.90
40996;DHT22;26723;57.478;12.066;2022-11-20T16:47:18;1.50;99.90
40996;DHT22;26723;57.478;12.066;2022-11-20T16:50:28;1.50;99.90
40996;DHT22;26723;57.478;12.066;2022-11-20T16:53:38;1.50;99.90
40996;DHT22;26723;57.478;12.066;2022-11-20T16:56:47;1.50;99.90
40996;DHT22;26723;57.478;12.066;2022-11-20T16:59:58;1.50;99.90
40996;DHT22;26723;57.478;12.066;2022-11-20T17:03:08;1.50;99.90
40996;DHT22;26723;57.478;12.066;2022-11-20T17:06:19;1.50;99.90
40996;DHT22;26723;57.478;12.066;2022-11-20T17:09:28;1.50;99.90
40996;DHT22;26723;57.478;12.066;2022-11-20T17:12:36;1.50;99.90
40996;DHT22;26723;57.478;12.066;2022-11-20T17:15:44;1.50;99.90
40996;DHT22;26723;57.478;12.066;2022-11-20T17:18:53;1.50;99.90
40996;DHT22;26723;57.478;12.066;2022-11-20T17:22:10;1.50;99.90
40996;DHT22;26723;57.478;12.066;2022-11-20T17:25:18;1.40;99.90
40996;DHT22;26723;57.478;12.066;2022-11-20T17:28:27;1.30;99.90
40996;DHT22;26723;57.478;12.066;2022-11-20T17:31:36;1.40;99.90
40996;DHT22;26723;57.478;12.066;2022-11-20T17:34:45;1.40;99.90
40996;DHT22;26723;57.478;12.066;2022-11-20T17:37:55;1.40;99.90
40996;DHT22;26723;57.478;12.066;2022-11-20T17:41:04;1.40;99.90
40996;DHT22;26723;57.478;12.066;2022-11-20T17:44:13;1.40;99.90
40996;DHT22;26723;57.478;12.066;2022-11-20T17:47:21;1.40;99.90
40996;DHT22;26723;57.478;12.066;2022-11-20T17:50:29;1.40;99.90
40996;DHT22;26723;57.478;12.066;2022-11-20T17:53:41;1.30;99.90
40996;DHT22;26723;57.478;12.066;2022-11-20T17:56:50;1.40;99.90
40996;DHT22;26723;57.478;12.066;2022-11-20T18:00:16;1.40;99.90
40996;DHT22;26723;57.478;12.066;2022-11-20T18:03:25;1.40;99.90
40996;DHT22;26723;57.478;12.066;2022-11-20T18:06:33;1.40;99.90
40996;DHT22;26723;57.478;12.066;2022-11-20T18:09:43;1.30;99.90
40996;DHT22;26723;57.478;12.066;2022-11-20T18:12:51;1.30;99.90
40996;DHT22;26723;57.478;12.066;2022-11-20T18:16:05;1.40;99.90
40996;DHT22;26723;57.478;12.066;2022-11-20T18:19:16;1.30;99.90
40996;DHT22;26723;57.478;12.066;2022-11-20T18:22:25;1.30;99.90
40996;DHT22;26723;57.478;12.066;2022-11-20T18:25:34;1.30;99.90
40996;DHT22;26723;57.478;12.066;2022-11-20T18:28:43;1.30;99.90
40996;DHT22;26723;57.478;12.066;2022-11-20T18:31:51;1.30;99.90
40996;DHT22;26723;57.478;12.066;2022-11-20T18:34:59;1.30;99.90
40996;DHT22;26723;57.478;12.066;2022-11-20T18:38:08;1.20;99.90
40996;DHT22;26723;57.478;12.066;2022-11-20T18:41:19;1.30;99.90
40996;DHT22;26723;57.478;12.066;2022-11-20T18:44:46;1.20;99.90
40996;DHT22;26723;57.478;12.066;2022-11-20T18:48:00;1.20;99.90
40996;DHT22;26723;57.478;12.066;2022-11-20T18:51:09;1.30;99.90
40996;DHT22;26723;57.478;12.066;2022-11-20T18:54:22;1.20;99.90
40996;DHT22;26723;57.478;12.066;2022-11-20T18:57:33;1.20;99.90
40996;DHT22;26723;57.478;12.066;2022-11-20T19:00:41;1.10;99.90
40996;DHT22;26723;57.478;12.066;2022-11-20T19:03:49;1.10;99.90
40996;DHT22;26723;57.478;12.066;2022-11-20T19:06:58;1.20;99.90
40996;DHT22;26723;57.478;12.066;2022-11-20T19:10:06;1.20;99.90
40996;DHT22;26723;57.478;12.066;2022-11-20T19:13:16;1.10;99.90
40996;DHT22;26723;57.478;12.066;2022-11-20T19:16:25;1.10;99.90
40996;DHT22;26723;57.478;12.066;2022-11-20T19:19:33;1.10;99.90
40996;DHT22;26723;57.478;12.066;2022-11-20T19:22:42;1.10;99.90
40996;DHT22;26723;57.478;12.066;2022-11-20T19:25:50;1.10;99.90
40996;DHT22;26723;57.478;12.066;2022-11-20T19:29:00;1.10;99.90
40996;DHT22;26723;57.478;12.066;2022-11-20T19:32:08;1.10;99.90
40996;DHT22;26723;57.478;12.066;2022-11-20T19:35:16;1.10;99.90
40996;DHT22;26723;57.478;12.066;2022-11-20T19:38:25;1.10;99.90
40996;DHT22;26723;57.478;12.066;2022-11-20T19:41:35;1.00;99.90
40996;DHT22;26723;57.478;12.066;2022-11-20T19:44:45;1.00;99.90
40996;DHT22;26723;57.478;12.066;2022-11-20T19:47:53;1.00;99.90
40996;DHT22;26723;57.478;12.066;2022-11-20T19:51:19;1.00;99.90
40996;DHT22;26723;57.478;12.066;2022-11-20T19:54:28;1.00;99.90
40996;DHT22;26723;57.478;12.066;2022-11-20T19:57:36;1.00;99.90
40996;DHT22;26723;57.478;12.066;2022-11-20T20:00:46;1.00;99.90
40996;DHT22;26723;57.478;12.066;2022-11-20T20:03:55;1.00;99.90
40996;DHT22;26723;57.478;12.066;2022-11-20T20:07:07;0.90;99.90